Louisville, Alabama
Current Conditions -  °F | °C
As of 8:53 AM on Thursday 23 Oct 2014 (Local Time) from KTOI Reporting Station
Clear Clear  
Wind Chill: 51°   Ceiling: Unl
Heat Index: 51°   Visibility: 10mi
Dew Point: 45°   Wind: 6mph
Humidity: 80%   Direction: 70°ENE
Pressure: 30.14"   Gusts: NA
Location:  31.78°N, 85.56°W
Report Text: KTOI 231353Z AUTO 07005KT 10SM CLR 11/07 A3014 RMK AO2 SLP206 T01060072
Loading
Personal Weather Stations






























Interactive Weather Map New forecast layout! Learn more

10-Day Weather Forecast

Advertisements
Track Severe Weather on mobile